createdAt,value
2018-08-19T00:01:16.850Z,11.93
2018-08-19T00:03:55.180Z,13.30
2018-08-19T00:06:31.437Z,13.30
2018-08-19T00:09:14.576Z,12.37
2018-08-19T00:11:51.455Z,13.17
2018-08-19T00:14:31.283Z,13.30
2018-08-19T00:17:07.145Z,12.63
2018-08-19T00:19:42.687Z,12.60
2018-08-19T00:22:18.941Z,13.67
2018-08-19T00:24:54.498Z,13.60
2018-08-19T00:27:31.016Z,13.80
2018-08-19T00:30:09.995Z,13.03
2018-08-19T00:32:48.090Z,13.33
2018-08-19T00:35:24.669Z,12.90
2018-08-19T00:38:02.615Z,12.40
2018-08-19T00:40:39.939Z,13.67
2018-08-19T00:43:19.293Z,13.80
2018-08-19T00:45:55.951Z,13.23
2018-08-19T00:48:33.769Z,12.60
2018-08-19T00:51:09.431Z,13.80
2018-08-19T00:53:44.945Z,13.43
2018-08-19T00:56:20.403Z,13.90
2018-08-19T00:58:56.462Z,14.13
2018-08-19T01:01:35.414Z,12.90
2018-08-19T01:04:11.747Z,13.17
2018-08-19T01:06:52.519Z,13.37
2018-08-19T01:09:30.372Z,14.80
2018-08-19T01:12:05.643Z,14.33
2018-08-19T01:14:41.094Z,13.27
2018-08-19T01:17:16.444Z,13.63
2018-08-19T01:19:53.294Z,13.67
2018-08-19T01:22:29.266Z,14.20
2018-08-19T01:25:06.368Z,13.47
2018-08-19T01:27:42.596Z,14.27
2018-08-19T01:30:22.554Z,14.60
2018-08-19T01:32:57.694Z,14.67
2018-08-19T01:35:40.196Z,14.73
2018-08-19T01:38:15.860Z,15.43
2018-08-19T01:40:52.187Z,15.70
2018-08-19T01:43:27.449Z,15.10
2018-08-19T01:46:03.916Z,14.73
2018-08-19T01:48:40.299Z,15.50
2018-08-19T01:51:16.533Z,14.73
2018-08-19T01:53:52.670Z,15.13
2018-08-19T01:56:28.147Z,14.40
2018-08-19T01:59:05.438Z,14.53
2018-08-19T02:01:54.572Z,16.27
2018-08-19T02:04:32.687Z,15.80
2018-08-19T02:07:09.579Z,15.70
2018-08-19T02:10:02.013Z,15.70
2018-08-19T02:12:40.322Z,16.27
2018-08-19T02:15:15.974Z,15.90
2018-08-19T02:17:57.441Z,16.93
2018-08-19T02:20:40.512Z,15.80
2018-08-19T02:23:16.307Z,16.03
2018-08-19T02:25:53.010Z,15.77
2018-08-19T02:28:28.765Z,15.50
2018-08-19T02:31:05.121Z,17.50
2018-08-19T02:33:40.775Z,15.90
2018-08-19T02:36:16.105Z,16.27
2018-08-19T02:38:51.979Z,15.97
2018-08-19T02:41:29.195Z,17.33
2018-08-19T02:44:04.837Z,15.10
2018-08-19T02:46:40.529Z,16.13
2018-08-19T02:49:18.430Z,15.63
2018-08-19T02:51:54.494Z,15.53
2018-08-19T02:54:30.820Z,16.47
2018-08-19T02:57:07.734Z,15.37
2018-08-19T02:59:43.648Z,15.10
2018-08-19T03:02:30.508Z,15.63
2018-08-19T03:05:09.132Z,15.47
2018-08-19T03:07:46.002Z,15.90
2018-08-19T03:10:22.148Z,15.57
2018-08-19T03:12:58.518Z,15.77
2018-08-19T03:15:37.451Z,16.70
2018-08-19T03:18:15.152Z,16.83
2018-08-19T03:20:49.974Z,16.07
2018-08-19T03:23:26.655Z,16.63
2018-08-19T03:26:02.803Z,16.60
2018-08-19T03:28:39.783Z,17.33
2018-08-19T03:31:16.364Z,17.60
2018-08-19T03:33:54.018Z,17.67
2018-08-19T03:36:32.417Z,17.07
2018-08-19T03:39:16.552Z,17.20
2018-08-19T03:41:52.355Z,18.03
2018-08-19T03:44:28.320Z,17.57
2018-08-19T03:47:09.098Z,15.83
2018-08-19T03:49:45.135Z,15.03
2018-08-19T03:52:20.958Z,17.20
2018-08-19T03:54:57.738Z,18.07
2018-08-19T03:57:34.385Z,17.70
2018-08-19T04:00:12.128Z,17.77
2018-08-19T04:02:50.344Z,16.40
2018-08-19T04:05:41.358Z,16.03
2018-08-19T04:08:18.202Z,17.33
2018-08-19T04:10:54.688Z,18.23
2018-08-19T04:13:38.219Z,18.43
2018-08-19T04:16:15.048Z,19.30
2018-08-19T04:18:50.705Z,17.27
2018-08-19T04:21:27.208Z,17.63
2018-08-19T04:24:04.789Z,17.43
2018-08-19T04:26:41.470Z,17.50
2018-08-19T04:29:27.165Z,18.17
2018-08-19T04:32:03.954Z,17.03
2018-08-19T04:34:40.602Z,16.93
2018-08-19T04:37:16.140Z,17.80
2018-08-19T04:39:53.031Z,18.43
2018-08-19T04:42:30.834Z,18.50
2018-08-19T04:45:06.691Z,17.60
2018-08-19T04:47:44.166Z,18.37
2018-08-19T04:50:18.858Z,17.87
2018-08-19T04:52:54.857Z,17.20
2018-08-19T04:55:30.954Z,17.53
2018-08-19T04:58:07.186Z,19.13
2018-08-19T05:00:44.046Z,18.83
2018-08-19T05:03:19.919Z,17.03
2018-08-19T05:05:58.325Z,17.57
2018-08-19T05:08:34.569Z,17.43
2018-08-19T05:11:10.118Z,16.83
2018-08-19T05:13:45.756Z,16.30
2018-08-19T05:16:20.695Z,17.33
2018-08-19T05:19:02.605Z,17.60
2018-08-19T05:21:39.158Z,16.27
2018-08-19T05:24:15.434Z,16.00
2018-08-19T05:26:54.965Z,16.87
2018-08-19T05:29:30.631Z,16.07
2018-08-19T05:32:09.462Z,16.17
2018-08-19T05:34:45.595Z,16.13
2018-08-19T05:37:23.602Z,15.90
2018-08-19T05:39:59.487Z,15.57
2018-08-19T05:42:36.952Z,15.97
2018-08-19T05:45:12.894Z,15.63
2018-08-19T05:47:58.801Z,15.17
2018-08-19T05:50:36.243Z,15.97
2018-08-19T05:53:12.353Z,16.77
2018-08-19T05:55:48.430Z,16.23
2018-08-19T05:58:25.278Z,16.13
2018-08-19T06:01:01.879Z,15.07
2018-08-19T06:03:37.689Z,15.93
2018-08-19T06:06:13.439Z,16.80
2018-08-19T06:08:50.441Z,15.50
2018-08-19T06:11:27.705Z,17.03
2018-08-19T06:14:02.625Z,17.90
2018-08-19T06:16:39.837Z,17.90
2018-08-19T06:19:17.092Z,16.63
2018-08-19T06:21:54.313Z,16.30
2018-08-19T06:24:30.858Z,16.77
2018-08-19T06:27:08.090Z,16.17
2018-08-19T06:29:54.657Z,16.83
2018-08-19T06:32:31.845Z,17.03
2018-08-19T06:35:08.150Z,16.50
2018-08-19T06:37:44.542Z,16.00
2018-08-19T06:40:24.576Z,16.23
2018-08-19T06:43:02.199Z,16.17
2018-08-19T06:45:38.786Z,17.03
2018-08-19T06:48:14.615Z,15.90
2018-08-19T06:50:52.006Z,16.03
2018-08-19T06:53:30.034Z,16.70
2018-08-19T06:56:06.889Z,15.47
2018-08-19T06:58:42.752Z,15.53
2018-08-19T07:01:19.829Z,15.57
2018-08-19T07:03:57.019Z,14.70
2018-08-19T07:06:33.898Z,16.17
2018-08-19T07:09:09.403Z,14.53
2018-08-19T07:11:58.586Z,14.30
2018-08-19T07:14:35.251Z,14.60
2018-08-19T07:17:12.348Z,13.27
2018-08-19T07:19:48.652Z,13.90
2018-08-19T07:22:26.384Z,15.57
2018-08-19T07:25:01.928Z,14.33
2018-08-19T07:27:39.815Z,14.17
2018-08-19T07:30:15.725Z,13.30
2018-08-19T07:32:51.113Z,13.80
2018-08-19T07:35:27.182Z,13.17
2018-08-19T07:38:03.481Z,13.53
2018-08-19T07:40:39.563Z,13.10
2018-08-19T07:43:14.773Z,12.63
2018-08-19T07:45:50.391Z,13.47
2018-08-19T07:48:26.382Z,12.47
2018-08-19T07:51:03.795Z,11.97
2018-08-19T07:53:39.400Z,12.40
2018-08-19T07:56:15.480Z,11.70
2018-08-19T07:59:25.014Z,11.73
2018-08-19T08:02:01.071Z,11.67
2018-08-19T08:04:42.213Z,10.73
2018-08-19T08:07:19.025Z,11.00
2018-08-19T08:09:56.305Z,11.40
2018-08-19T08:12:32.056Z,11.17
2018-08-19T08:15:09.014Z,10.87
2018-08-19T08:17:44.825Z,10.10
2018-08-19T08:20:22.377Z,10.57
2018-08-19T08:22:58.490Z,10.03
2018-08-19T08:25:34.888Z,10.37
2018-08-19T08:28:11.532Z,10.70
2018-08-19T08:30:47.161Z,10.20
2018-08-19T08:33:24.184Z,10.80
2018-08-19T08:36:00.323Z,9.87
2018-08-19T08:38:36.733Z,10.40
2018-08-19T08:41:12.949Z,9.37
2018-08-19T08:43:47.490Z,9.63
2018-08-19T08:46:24.263Z,8.53
2018-08-19T08:49:00.229Z,9.63
2018-08-19T08:51:36.788Z,8.70
2018-08-19T08:54:12.774Z,8.67
2018-08-19T08:56:51.773Z,8.67
2018-08-19T08:59:28.966Z,8.90
2018-08-19T09:02:04.112Z,9.53
2018-08-19T09:04:39.563Z,8.83
2018-08-19T09:07:15.605Z,8.80
2018-08-19T09:09:50.673Z,8.60
2018-08-19T09:12:36.948Z,8.43
2018-08-19T09:15:12.284Z,8.77
2018-08-19T09:17:47.379Z,8.80
2018-08-19T09:20:22.110Z,7.80
2018-08-19T09:22:56.918Z,8.87
2018-08-19T09:25:32.210Z,7.37
2018-08-19T09:28:06.900Z,6.80
2018-08-19T09:30:43.495Z,8.00
2018-08-19T09:33:18.174Z,7.83
2018-08-19T09:35:52.865Z,7.67
2018-08-19T09:38:27.469Z,8.23
2018-08-19T09:41:01.902Z,7.73
2018-08-19T09:43:37.213Z,7.30
2018-08-19T09:46:12.880Z,7.30
2018-08-19T09:48:48.218Z,7.80
2018-08-19T09:51:23.473Z,7.27
2018-08-19T09:53:57.946Z,7.90
2018-08-19T09:56:37.900Z,7.00
2018-08-19T09:59:13.877Z,7.80
2018-08-19T10:01:49.134Z,8.13
2018-08-19T10:04:25.922Z,7.70
2018-08-19T10:07:06.396Z,8.13
2018-08-19T10:09:41.282Z,6.50
2018-08-19T10:12:15.802Z,6.97
2018-08-19T10:14:53.316Z,7.40
2018-08-19T10:17:27.602Z,7.30
2018-08-19T10:20:02.018Z,6.60
2018-08-19T10:22:39.370Z,6.73
2018-08-19T10:25:15.121Z,6.27
2018-08-19T10:27:50.701Z,7.10
2018-08-19T10:30:25.100Z,6.27
2018-08-19T10:33:06.316Z,6.63
2018-08-19T10:35:40.840Z,6.60
2018-08-19T10:38:15.746Z,6.10
2018-08-19T10:40:57.317Z,7.07
2018-08-19T10:43:31.854Z,6.23
2018-08-19T10:46:06.261Z,5.73
2018-08-19T10:48:40.526Z,6.30
2018-08-19T10:51:14.920Z,6.07
2018-08-19T10:53:49.358Z,6.30
2018-08-19T10:56:26.099Z,6.00
2018-08-19T10:59:00.605Z,6.17
2018-08-19T11:01:35.137Z,6.10
2018-08-19T11:04:09.494Z,6.27
2018-08-19T11:06:44.057Z,6.70
2018-08-19T11:09:18.277Z,6.53
2018-08-19T11:11:52.966Z,6.77
2018-08-19T11:14:27.430Z,6.43
2018-08-19T11:17:01.750Z,6.30
2018-08-19T11:19:38.250Z,6.20
2018-08-19T11:22:12.822Z,6.30
2018-08-19T11:24:47.261Z,6.63
2018-08-19T11:27:23.752Z,6.30
2018-08-19T11:29:57.844Z,6.53
2018-08-19T11:32:36.814Z,5.93
2018-08-19T11:35:11.150Z,6.20
2018-08-19T11:37:45.944Z,5.77
2018-08-19T11:40:20.256Z,6.27
2018-08-19T11:42:54.802Z,5.30
2018-08-19T11:45:29.438Z,5.50
2018-08-19T11:48:03.857Z,6.20
2018-08-19T11:50:38.394Z,6.60
2018-08-19T11:53:12.964Z,6.37
2018-08-19T11:55:47.457Z,5.50
2018-08-19T11:58:34.482Z,6.40
2018-08-19T12:01:13.333Z,6.20
2018-08-19T12:04:00.833Z,5.90
2018-08-19T12:06:35.356Z,6.30
2018-08-19T12:09:10.698Z,6.00
2018-08-19T12:11:45.137Z,6.30
2018-08-19T12:14:19.652Z,5.80
2018-08-19T12:16:57.014Z,5.37
2018-08-19T12:19:32.170Z,5.93
2018-08-19T12:22:06.694Z,6.30
2018-08-19T12:27:10.286Z,6.40
2018-08-19T12:29:45.334Z,6.93
2018-08-19T12:32:25.558Z,6.70
2018-08-19T12:35:01.141Z,6.27
2018-08-19T12:37:35.687Z,6.03
2018-08-19T12:40:10.034Z,6.07
2018-08-19T12:42:49.733Z,6.50
2018-08-19T12:45:24.071Z,6.07
2018-08-19T12:47:59.782Z,5.93
2018-08-19T12:50:34.017Z,6.57
2018-08-19T12:53:08.516Z,6.03
2018-08-19T12:55:43.416Z,6.43
2018-08-19T12:58:17.918Z,5.83
2018-08-19T13:00:52.171Z,5.90
2018-08-19T13:03:28.007Z,6.70
2018-08-19T13:06:06.059Z,6.43
2018-08-19T13:08:40.551Z,6.07
2018-08-19T13:11:14.985Z,6.53
2018-08-19T13:13:49.613Z,6.87
2018-08-19T13:16:24.211Z,6.13
2018-08-19T13:18:58.758Z,6.23
2018-08-19T13:21:33.281Z,6.53
2018-08-19T13:24:07.817Z,6.83
2018-08-19T13:26:42.418Z,6.43
2018-08-19T13:29:16.724Z,6.20
2018-08-19T13:31:51.142Z,6.90
2018-08-19T13:34:26.519Z,5.87
2018-08-19T13:37:01.022Z,6.20
2018-08-19T13:39:35.519Z,5.77
2018-08-19T13:42:10.438Z,5.80
2018-08-19T13:44:44.797Z,6.30
2018-08-19T13:47:19.272Z,5.83
2018-08-19T13:49:53.635Z,6.07
2018-08-19T13:52:29.953Z,5.37
2018-08-19T13:55:07.811Z,5.97
2018-08-19T13:57:42.630Z,5.50
2018-08-19T14:00:20.926Z,5.90
2018-08-19T14:02:55.197Z,6.07
2018-08-19T14:05:29.756Z,5.60
2018-08-19T14:08:04.687Z,6.03
2018-08-19T14:10:39.603Z,5.67
2018-08-19T14:13:14.237Z,6.07
2018-08-19T14:15:48.577Z,5.73
2018-08-19T14:18:22.984Z,6.10
2018-08-19T14:20:57.571Z,5.67
2018-08-19T14:23:32.118Z,6.10
2018-08-19T14:26:06.749Z,5.87
2018-08-19T14:28:41.388Z,6.00
2018-08-19T14:31:15.989Z,6.37
2018-08-19T14:33:50.623Z,6.00
2018-08-19T14:36:25.410Z,5.70
2018-08-19T14:39:00.117Z,5.63
2018-08-19T14:41:34.801Z,6.10
2018-08-19T14:44:09.337Z,5.50
2018-08-19T14:46:44.088Z,5.97
2018-08-19T14:49:18.489Z,5.70
2018-08-19T14:51:56.689Z,5.90
